Keyes, OK (73947)

12:45 AM CDT on September 01, 2015 (GMT -0500)
Fort Wiegers | | Change Station
CLOSE
Current Station
Personal Weather Station
Location: Elkhart, KS
Elevation: 3554 ft
Nearby Weather Stations

Elev 3554 ft 37.04 °N, 101.97 °W | Updated 6 seconds ago

Overcast
Overcast
74.9 °F
Feels Like 78 °F
N
7.0
Wind Variable Wind from SSW
Gusts 12.0 mph

Today
High -- | Low -- °F
--% Chance of Precip.
Yesterday
High -- | Low -- °F
Precip. -- in
7:19 AM 8:17 PM
Waning Gibbous, 91% visible
Pressure 29.83 in
Visibility 10.0 miles
Clouds Clear
Heat Index 78 °F
Dew Point 54 °F
Humidity 49%
Rainfall 0.00 in
Snow Depth Not available.
UV 0 out of 12
Pollen 9.70 out of 12
Air Quality Not available.
Flu Activity Not available.
METAR KGUY 010453Z AUTO 18009KT 10SM CLR 24/10 A2998 RMK AO2 SLP100 T02390100
Pressure 29.83 in
Visibility 10.0 miles
Clouds Clear
Heat Index 78 °F
Dew Point 54 °F
Humidity 49%
Rainfall 0.00 in
Snow Depth Not available.
UV 0 out of 12
Pollen 9.70 out of 12
Air Quality Not available.
Flu Activity Not available.
METAR KGUY 010453Z AUTO 18009KT 10SM CLR 24/10 A2998 RMK AO2 SLP100 T02390100
Nowcast | as of 10:11 PM CDT on August 31, 2015

Isolated showers and thunderstorms will continue to move northeast at 10 miles an hour or less through the early morning. Some of the strongest storms will be capable of producing gusty winds to around 40 miles an hour and brief heavy rain. Kenton...Black Mesa State Park...Texline...felt and Boise City are a few places that may be affected by the showers and storms through 100 am.

×

10-Day Weather Forecast

×

Almanac

Astronomy

Sep. 01, 2015 Rise Set
Actual Time
Civil Twilight
Nautical Twilight
Astronomical Twilight
Moon
Length of Visible Light
Length of Day
Tomorrow will be .
, % of the Moon is Illuminated

Today's Extremes

State Highs State Lows

Community

WunderPhotos

Upload Photos

1,851,484 photos uploaded!

WunderBlogs® & News

Nearby

Air Quality

  Air Quality AQ Index Pollutant
Not available.

Snow Depth

Station Depth Elevation

Earthquake Activity

City Distance Mag. Time & Date
Minimum magnitude displayed is 2.5.

Coastal Water Temperatures

Place Temperature

Stations

Nearby Weather Stations

Station Location Temp. Windchill Dew Point Humidity Wind Precip. Elev Updated Type